sensor_id;sensor_type;location;lat;lon;timestamp;temperature;humidity
22635;DHT22;11484;50.858;4.384;2023-05-14T00:01:39;14.80;99.90
22635;DHT22;11484;50.858;4.384;2023-05-14T00:04:04;14.90;99.90
22635;DHT22;11484;50.858;4.384;2023-05-14T00:06:30;14.90;99.90
22635;DHT22;11484;50.858;4.384;2023-05-14T00:08:56;14.90;99.90
22635;DHT22;11484;50.858;4.384;2023-05-14T00:11:22;14.80;99.90
22635;DHT22;11484;50.858;4.384;2023-05-14T00:13:49;14.80;99.90
22635;DHT22;11484;50.858;4.384;2023-05-14T00:16:14;14.80;99.90
22635;DHT22;11484;50.858;4.384;2023-05-14T00:18:40;14.80;99.90
22635;DHT22;11484;50.858;4.384;2023-05-14T00:21:06;14.80;99.90
22635;DHT22;11484;50.858;4.384;2023-05-14T00:23:32;14.70;99.90
22635;DHT22;11484;50.858;4.384;2023-05-14T00:25:58;14.70;99.90
22635;DHT22;11484;50.858;4.384;2023-05-14T00:28:23;14.70;99.90
22635;DHT22;11484;50.858;4.384;2023-05-14T00:30:50;14.70;99.90
22635;DHT22;11484;50.858;4.384;2023-05-14T00:33:15;14.70;99.90
22635;DHT22;11484;50.858;4.384;2023-05-14T00:35:41;14.70;99.90
22635;DHT22;11484;50.858;4.384;2023-05-14T00:38:07;14.80;99.90
22635;DHT22;11484;50.858;4.384;2023-05-14T00:40:32;14.80;99.90
22635;DHT22;11484;50.858;4.384;2023-05-14T00:42:58;14.70;99.90
22635;DHT22;11484;50.858;4.384;2023-05-14T00:45:24;14.80;99.90
22635;DHT22;11484;50.858;4.384;2023-05-14T00:47:50;14.80;99.90
22635;DHT22;11484;50.858;4.384;2023-05-14T00:50:17;14.80;99.90
22635;DHT22;11484;50.858;4.384;2023-05-14T00:52:43;14.80;99.90
22635;DHT22;11484;50.858;4.384;2023-05-14T00:55:09;14.90;99.90
22635;DHT22;11484;50.858;4.384;2023-05-14T00:57:37;14.90;99.90
22635;DHT22;11484;50.858;4.384;2023-05-14T01:00:03;14.90;99.90
22635;DHT22;11484;50.858;4.384;2023-05-14T01:02:29;14.90;99.90
22635;DHT22;11484;50.858;4.384;2023-05-14T01:04:56;14.80;99.90
22635;DHT22;11484;50.858;4.384;2023-05-14T01:07:41;14.80;99.90
22635;DHT22;11484;50.858;4.384;2023-05-14T01:11:16;14.80;99.90
22635;DHT22;11484;50.858;4.384;2023-05-14T01:13:13;14.90;99.90
22635;DHT22;11484;50.858;4.384;2023-05-14T01:15:43;14.80;99.90
22635;DHT22;11484;50.858;4.384;2023-05-14T01:18:14;14.80;99.90
22635;DHT22;11484;50.858;4.384;2023-05-14T01:20:41;14.70;99.90
22635;DHT22;11484;50.858;4.384;2023-05-14T01:23:07;14.70;99.90
22635;DHT22;11484;50.858;4.384;2023-05-14T01:25:33;14.80;99.90
22635;DHT22;11484;50.858;4.384;2023-05-14T01:28:16;14.80;99.90
22635;DHT22;11484;50.858;4.384;2023-05-14T01:30:56;14.70;99.90
22635;DHT22;11484;50.858;4.384;2023-05-14T01:33:24;14.70;99.90
22635;DHT22;11484;50.858;4.384;2023-05-14T01:35:53;14.70;99.90
22635;DHT22;11484;50.858;4.384;2023-05-14T01:38:19;14.70;99.90
22635;DHT22;11484;50.858;4.384;2023-05-14T01:40:46;14.70;99.90
22635;DHT22;11484;50.858;4.384;2023-05-14T01:43:14;14.60;99.90
22635;DHT22;11484;50.858;4.384;2023-05-14T01:45:40;14.50;99.90
22635;DHT22;11484;50.858;4.384;2023-05-14T01:48:06;14.50;99.90
22635;DHT22;11484;50.858;4.384;2023-05-14T01:50:32;14.50;99.90
22635;DHT22;11484;50.858;4.384;2023-05-14T01:52:58;14.50;99.90
22635;DHT22;11484;50.858;4.384;2023-05-14T01:55:24;14.50;99.90
22635;DHT22;11484;50.858;4.384;2023-05-14T01:57:52;14.50;99.90
22635;DHT22;11484;50.858;4.384;2023-05-14T02:00:18;14.40;99.90
22635;DHT22;11484;50.858;4.384;2023-05-14T02:02:44;14.50;99.90
22635;DHT22;11484;50.858;4.384;2023-05-14T02:05:10;14.40;99.90
22635;DHT22;11484;50.858;4.384;2023-05-14T02:07:37;14.50;99.90
22635;DHT22;11484;50.858;4.384;2023-05-14T02:10:03;14.50;99.90
22635;DHT22;11484;50.858;4.384;2023-05-14T02:12:30;14.40;99.90
22635;DHT22;11484;50.858;4.384;2023-05-14T02:14:56;14.50;99.90
22635;DHT22;11484;50.858;4.384;2023-05-14T02:17:24;14.50;99.90
22635;DHT22;11484;50.858;4.384;2023-05-14T02:19:50;14.50;99.90
22635;DHT22;11484;50.858;4.384;2023-05-14T02:22:16;14.50;99.90
22635;DHT22;11484;50.858;4.384;2023-05-14T02:24:41;14.50;99.90
22635;DHT22;11484;50.858;4.384;2023-05-14T02:27:07;14.60;99.90
22635;DHT22;11484;50.858;4.384;2023-05-14T02:29:33;14.60;99.90
22635;DHT22;11484;50.858;4.384;2023-05-14T02:31:58;14.70;99.90
22635;DHT22;11484;50.858;4.384;2023-05-14T02:34:24;14.70;99.90
22635;DHT22;11484;50.858;4.384;2023-05-14T02:36:49;14.70;99.90
22635;DHT22;11484;50.858;4.384;2023-05-14T02:39:15;14.60;99.90
22635;DHT22;11484;50.858;4.384;2023-05-14T02:41:41;14.70;99.90
22635;DHT22;11484;50.858;4.384;2023-05-14T02:44:06;14.60;99.90
22635;DHT22;11484;50.858;4.384;2023-05-14T02:46:32;14.60;99.90
22635;DHT22;11484;50.858;4.384;2023-05-14T02:48:58;14.50;99.90
22635;DHT22;11484;50.858;4.384;2023-05-14T02:51:23;14.50;99.90
22635;DHT22;11484;50.858;4.384;2023-05-14T02:53:49;14.50;99.90
22635;DHT22;11484;50.858;4.384;2023-05-14T02:56:15;14.50;99.90
22635;DHT22;11484;50.858;4.384;2023-05-14T02:58:41;14.50;99.90
22635;DHT22;11484;50.858;4.384;2023-05-14T03:01:06;14.50;99.90
22635;DHT22;11484;50.858;4.384;2023-05-14T03:03:33;14.50;99.90
22635;DHT22;11484;50.858;4.384;2023-05-14T03:05:59;14.50;99.90
22635;DHT22;11484;50.858;4.384;2023-05-14T03:08:24;14.50;99.90
22635;DHT22;11484;50.858;4.384;2023-05-14T03:10:50;14.50;99.90
22635;DHT22;11484;50.858;4.384;2023-05-14T03:13:16;14.50;99.90
22635;DHT22;11484;50.858;4.384;2023-05-14T03:15:44;14.50;99.90
22635;DHT22;11484;50.858;4.384;2023-05-14T03:18:12;14.60;99.90
22635;DHT22;11484;50.858;4.384;2023-05-14T03:20:37;14.60;99.90
22635;DHT22;11484;50.858;4.384;2023-05-14T03:23:03;14.60;99.90
22635;DHT22;11484;50.858;4.384;2023-05-14T03:25:29;14.60;99.90
22635;DHT22;11484;50.858;4.384;2023-05-14T03:27:55;14.50;99.90
22635;DHT22;11484;50.858;4.384;2023-05-14T03:30:21;14.60;99.90
22635;DHT22;11484;50.858;4.384;2023-05-14T03:32:46;14.60;99.90
22635;DHT22;11484;50.858;4.384;2023-05-14T03:35:12;14.60;99.90
22635;DHT22;11484;50.858;4.384;2023-05-14T03:37:38;14.50;99.90
22635;DHT22;11484;50.858;4.384;2023-05-14T03:40:04;14.50;99.90
22635;DHT22;11484;50.858;4.384;2023-05-14T03:42:30;14.50;99.90
22635;DHT22;11484;50.858;4.384;2023-05-14T03:44:55;14.50;99.90
22635;DHT22;11484;50.858;4.384;2023-05-14T03:47:21;14.60;99.90
22635;DHT22;11484;50.858;4.384;2023-05-14T03:49:46;14.60;99.90
22635;DHT22;11484;50.858;4.384;2023-05-14T03:52:12;14.60;99.90
22635;DHT22;11484;50.858;4.384;2023-05-14T03:54:38;14.60;99.90
22635;DHT22;11484;50.858;4.384;2023-05-14T03:57:05;14.60;99.90
22635;DHT22;11484;50.858;4.384;2023-05-14T03:59:31;14.50;99.90
22635;DHT22;11484;50.858;4.384;2023-05-14T04:01:57;14.60;99.90
22635;DHT22;11484;50.858;4.384;2023-05-14T04:04:22;14.60;99.90
22635;DHT22;11484;50.858;4.384;2023-05-14T04:06:48;14.50;99.90
22635;DHT22;11484;50.858;4.384;2023-05-14T04:09:14;14.50;99.90
22635;DHT22;11484;50.858;4.384;2023-05-14T04:11:40;14.60;99.90
22635;DHT22;11484;50.858;4.384;2023-05-14T04:14:05;14.60;99.90
22635;DHT22;11484;50.858;4.384;2023-05-14T04:16:31;14.60;99.90
22635;DHT22;11484;50.858;4.384;2023-05-14T04:18:56;14.60;99.90
22635;DHT22;11484;50.858;4.384;2023-05-14T04:21:22;14.60;99.90
22635;DHT22;11484;50.858;4.384;2023-05-14T04:23:48;14.60;99.90
22635;DHT22;11484;50.858;4.384;2023-05-14T04:26:15;14.60;99.90
22635;DHT22;11484;50.858;4.384;2023-05-14T04:28:40;14.50;99.90
22635;DHT22;11484;50.858;4.384;2023-05-14T04:31:06;14.50;99.90
22635;DHT22;11484;50.858;4.384;2023-05-14T04:33:32;14.60;99.90
22635;DHT22;11484;50.858;4.384;2023-05-14T04:35:57;14.60;99.90
22635;DHT22;11484;50.858;4.384;2023-05-14T04:38:23;14.60;99.90
22635;DHT22;11484;50.858;4.384;2023-05-14T04:40:48;14.60;99.90
22635;DHT22;11484;50.858;4.384;2023-05-14T04:43:14;14.60;99.90
22635;DHT22;11484;50.858;4.384;2023-05-14T04:45:41;14.60;99.90
22635;DHT22;11484;50.858;4.384;2023-05-14T04:48:07;14.60;99.90
22635;DHT22;11484;50.858;4.384;2023-05-14T04:50:33;14.60;99.90
22635;DHT22;11484;50.858;4.384;2023-05-14T04:52:59;14.70;99.90
22635;DHT22;11484;50.858;4.384;2023-05-14T04:55:25;14.60;99.90
22635;DHT22;11484;50.858;4.384;2023-05-14T04:57:51;14.60;99.90
22635;DHT22;11484;50.858;4.384;2023-05-14T05:00:17;14.60;99.90
22635;DHT22;11484;50.858;4.384;2023-05-14T05:02:43;14.50;99.90
22635;DHT22;11484;50.858;4.384;2023-05-14T05:05:09;14.50;99.90
22635;DHT22;11484;50.858;4.384;2023-05-14T05:07:35;14.60;99.90
22635;DHT22;11484;50.858;4.384;2023-05-14T05:10:01;14.70;99.90
22635;DHT22;11484;50.858;4.384;2023-05-14T05:12:27;14.60;99.90
22635;DHT22;11484;50.858;4.384;2023-05-14T05:14:55;14.60;99.90
22635;DHT22;11484;50.858;4.384;2023-05-14T05:17:22;14.60;99.90
22635;DHT22;11484;50.858;4.384;2023-05-14T05:19:48;14.60;99.90
22635;DHT22;11484;50.858;4.384;2023-05-14T05:22:14;14.70;99.90
22635;DHT22;11484;50.858;4.384;2023-05-14T05:24:39;14.70;99.90
22635;DHT22;11484;50.858;4.384;2023-05-14T05:27:05;14.70;99.90
22635;DHT22;11484;50.858;4.384;2023-05-14T05:29:31;14.80;99.90
22635;DHT22;11484;50.858;4.384;2023-05-14T05:31:59;14.80;99.90
22635;DHT22;11484;50.858;4.384;2023-05-14T05:34:26;14.70;99.90
22635;DHT22;11484;50.858;4.384;2023-05-14T05:36:51;14.70;99.90
22635;DHT22;11484;50.858;4.384;2023-05-14T05:39:17;14.80;99.90
22635;DHT22;11484;50.858;4.384;2023-05-14T05:41:43;14.90;99.90
22635;DHT22;11484;50.858;4.384;2023-05-14T05:44:08;14.90;99.90
22635;DHT22;11484;50.858;4.384;2023-05-14T05:46:34;14.90;99.90
22635;DHT22;11484;50.858;4.384;2023-05-14T05:49:00;14.90;99.90
22635;DHT22;11484;50.858;4.384;2023-05-14T05:51:25;14.90;99.90
22635;DHT22;11484;50.858;4.384;2023-05-14T05:53:51;14.80;99.90
22635;DHT22;11484;50.858;4.384;2023-05-14T05:56:17;14.70;99.90
22635;DHT22;11484;50.858;4.384;2023-05-14T05:58:42;14.80;99.90
22635;DHT22;11484;50.858;4.384;2023-05-14T06:01:08;14.80;99.90
22635;DHT22;11484;50.858;4.384;2023-05-14T06:03:34;14.80;99.90
22635;DHT22;11484;50.858;4.384;2023-05-14T06:05:59;14.70;99.90
22635;DHT22;11484;50.858;4.384;2023-05-14T06:08:25;14.70;99.90
22635;DHT22;11484;50.858;4.384;2023-05-14T06:10:51;14.80;99.90
22635;DHT22;11484;50.858;4.384;2023-05-14T06:13:17;14.80;99.90
22635;DHT22;11484;50.858;4.384;2023-05-14T06:15:42;14.80;99.90
22635;DHT22;11484;50.858;4.384;2023-05-14T06:18:08;14.80;99.90
22635;DHT22;11484;50.858;4.384;2023-05-14T06:20:34;14.80;99.90
22635;DHT22;11484;50.858;4.384;2023-05-14T06:23:00;14.80;99.90
22635;DHT22;11484;50.858;4.384;2023-05-14T06:25:25;14.90;99.90
22635;DHT22;11484;50.858;4.384;2023-05-14T06:27:51;14.90;99.90
22635;DHT22;11484;50.858;4.384;2023-05-14T06:30:17;15.00;99.90
22635;DHT22;11484;50.858;4.384;2023-05-14T06:32:42;15.00;99.90
22635;DHT22;11484;50.858;4.384;2023-05-14T06:35:08;15.00;99.90
22635;DHT22;11484;50.858;4.384;2023-05-14T06:37:34;14.90;99.90
22635;DHT22;11484;50.858;4.384;2023-05-14T06:40:00;15.00;99.90
22635;DHT22;11484;50.858;4.384;2023-05-14T06:42:26;15.00;99.90
22635;DHT22;11484;50.858;4.384;2023-05-14T06:44:51;15.10;99.90
22635;DHT22;11484;50.858;4.384;2023-05-14T06:47:17;15.20;99.90
22635;DHT22;11484;50.858;4.384;2023-05-14T06:49:43;15.30;99.90
22635;DHT22;11484;50.858;4.384;2023-05-14T06:52:08;15.40;99.90
22635;DHT22;11484;50.858;4.384;2023-05-14T06:54:34;15.40;99.90
22635;DHT22;11484;50.858;4.384;2023-05-14T06:57:00;15.30;99.90
22635;DHT22;11484;50.858;4.384;2023-05-14T06:59:26;15.20;99.90
22635;DHT22;11484;50.858;4.384;2023-05-14T07:01:51;15.20;99.90
22635;DHT22;11484;50.858;4.384;2023-05-14T07:04:17;15.10;99.90
22635;DHT22;11484;50.858;4.384;2023-05-14T07:06:43;15.10;99.90
22635;DHT22;11484;50.858;4.384;2023-05-14T07:09:08;15.10;99.90
22635;DHT22;11484;50.858;4.384;2023-05-14T07:11:35;15.20;99.90
22635;DHT22;11484;50.858;4.384;2023-05-14T07:14:00;15.20;99.90
22635;DHT22;11484;50.858;4.384;2023-05-14T07:16:26;15.40;99.90
22635;DHT22;11484;50.858;4.384;2023-05-14T07:18:52;15.40;99.90
22635;DHT22;11484;50.858;4.384;2023-05-14T07:21:18;15.40;99.90
22635;DHT22;11484;50.858;4.384;2023-05-14T07:23:43;15.30;99.90
22635;DHT22;11484;50.858;4.384;2023-05-14T07:26:09;15.30;99.90
22635;DHT22;11484;50.858;4.384;2023-05-14T07:28:35;15.30;99.90
22635;DHT22;11484;50.858;4.384;2023-05-14T07:31:01;15.40;99.90
22635;DHT22;11484;50.858;4.384;2023-05-14T07:33:29;15.40;99.90
22635;DHT22;11484;50.858;4.384;2023-05-14T07:35:54;15.40;99.90
22635;DHT22;11484;50.858;4.384;2023-05-14T07:38:20;15.40;99.90
22635;DHT22;11484;50.858;4.384;2023-05-14T07:40:46;15.50;99.90
22635;DHT22;11484;50.858;4.384;2023-05-14T07:43:13;15.50;99.90
22635;DHT22;11484;50.858;4.384;2023-05-14T07:45:39;15.50;99.90
22635;DHT22;11484;50.858;4.384;2023-05-14T07:48:04;15.50;99.90
22635;DHT22;11484;50.858;4.384;2023-05-14T07:50:30;15.50;99.90
22635;DHT22;11484;50.858;4.384;2023-05-14T07:52:56;15.50;99.90
22635;DHT22;11484;50.858;4.384;2023-05-14T07:55:26;15.60;99.90
22635;DHT22;11484;50.858;4.384;2023-05-14T07:57:52;15.70;99.90
22635;DHT22;11484;50.858;4.384;2023-05-14T08:00:18;15.70;99.90
22635;DHT22;11484;50.858;4.384;2023-05-14T08:02:44;15.70;99.90
22635;DHT22;11484;50.858;4.384;2023-05-14T08:05:09;15.90;99.90
22635;DHT22;11484;50.858;4.384;2023-05-14T08:07:35;16.00;99.90
22635;DHT22;11484;50.858;4.384;2023-05-14T08:10:01;16.10;99.90
22635;DHT22;11484;50.858;4.384;2023-05-14T08:12:27;16.10;99.90
22635;DHT22;11484;50.858;4.384;2023-05-14T08:14:54;16.20;99.90
22635;DHT22;11484;50.858;4.384;2023-05-14T08:17:20;16.30;99.90
22635;DHT22;11484;50.858;4.384;2023-05-14T08:19:46;16.60;99.90
22635;DHT22;11484;50.858;4.384;2023-05-14T08:22:12;16.60;99.90
22635;DHT22;11484;50.858;4.384;2023-05-14T08:24:38;16.80;99.90
22635;DHT22;11484;50.858;4.384;2023-05-14T08:27:04;16.80;99.90
22635;DHT22;11484;50.858;4.384;2023-05-14T08:29:29;16.70;99.90
22635;DHT22;11484;50.858;4.384;2023-05-14T08:31:55;16.70;99.90
22635;DHT22;11484;50.858;4.384;2023-05-14T08:34:20;16.80;99.90
22635;DHT22;11484;50.858;4.384;2023-05-14T08:36:46;17.10;99.90
22635;DHT22;11484;50.858;4.384;2023-05-14T08:39:12;17.20;99.90
22635;DHT22;11484;50.858;4.384;2023-05-14T08:41:39;17.70;99.90
22635;DHT22;11484;50.858;4.384;2023-05-14T08:44:11;18.40;99.90
22635;DHT22;11484;50.858;4.384;2023-05-14T08:46:38;18.60;99.90
22635;DHT22;11484;50.858;4.384;2023-05-14T08:51:48;18.40;99.90
22635;DHT22;11484;50.858;4.384;2023-05-14T08:54:16;18.10;99.90
22635;DHT22;11484;50.858;4.384;2023-05-14T08:56:45;18.00;99.90
22635;DHT22;11484;50.858;4.384;2023-05-14T08:59:12;17.80;99.90
22635;DHT22;11484;50.858;4.384;2023-05-14T09:01:38;17.60;99.90
22635;DHT22;11484;50.858;4.384;2023-05-14T09:04:05;17.40;99.90
22635;DHT22;11484;50.858;4.384;2023-05-14T09:06:37;17.30;99.90
22635;DHT22;11484;50.858;4.384;2023-05-14T09:09:03;17.20;99.90
22635;DHT22;11484;50.858;4.384;2023-05-14T09:11:29;17.20;99.90
22635;DHT22;11484;50.858;4.384;2023-05-14T09:13:55;17.10;99.90
22635;DHT22;11484;50.858;4.384;2023-05-14T09:16:21;17.00;99.90
22635;DHT22;11484;50.858;4.384;2023-05-14T09:18:48;16.90;99.90
22635;DHT22;11484;50.858;4.384;2023-05-14T09:21:14;17.10;99.90
22635;DHT22;11484;50.858;4.384;2023-05-14T09:23:43;17.40;99.90
22635;DHT22;11484;50.858;4.384;2023-05-14T09:26:10;17.80;99.90
22635;DHT22;11484;50.858;4.384;2023-05-14T09:28:39;18.30;99.90
22635;DHT22;11484;50.858;4.384;2023-05-14T09:31:06;18.90;99.90
22635;DHT22;11484;50.858;4.384;2023-05-14T09:33:31;19.00;99.90
22635;DHT22;11484;50.858;4.384;2023-05-14T09:35:58;19.30;99.90
22635;DHT22;11484;50.858;4.384;2023-05-14T09:38:32;19.90;99.90
22635;DHT22;11484;50.858;4.384;2023-05-14T09:40:59;20.20;99.90
22635;DHT22;11484;50.858;4.384;2023-05-14T09:43:25;20.20;99.90
22635;DHT22;11484;50.858;4.384;2023-05-14T09:45:51;20.70;99.90
22635;DHT22;11484;50.858;4.384;2023-05-14T09:48:18;21.30;99.90
22635;DHT22;11484;50.858;4.384;2023-05-14T09:50:45;21.40;99.90
22635;DHT22;11484;50.858;4.384;2023-05-14T09:53:12;21.90;99.90
22635;DHT22;11484;50.858;4.384;2023-05-14T09:55:38;21.80;99.90
22635;DHT22;11484;50.858;4.384;2023-05-14T09:58:04;22.00;99.90
22635;DHT22;11484;50.858;4.384;2023-05-14T10:00:31;22.20;99.90
22635;DHT22;11484;50.858;4.384;2023-05-14T10:02:57;22.10;99.90
22635;DHT22;11484;50.858;4.384;2023-05-14T10:05:23;21.90;99.90
22635;DHT22;11484;50.858;4.384;2023-05-14T10:07:52;21.60;99.90
22635;DHT22;11484;50.858;4.384;2023-05-14T10:10:20;21.20;99.90
22635;DHT22;11484;50.858;4.384;2023-05-14T10:12:56;21.30;99.90
22635;DHT22;11484;50.858;4.384;2023-05-14T10:15:32;21.40;99.90
22635;DHT22;11484;50.858;4.384;2023-05-14T10:18:02;21.60;99.90
22635;DHT22;11484;50.858;4.384;2023-05-14T10:20:28;22.00;99.90
22635;DHT22;11484;50.858;4.384;2023-05-14T10:22:56;22.40;99.90
22635;DHT22;11484;50.858;4.384;2023-05-14T10:25:23;22.30;99.90
22635;DHT22;11484;50.858;4.384;2023-05-14T10:27:49;22.10;99.90
22635;DHT22;11484;50.858;4.384;2023-05-14T10:30:14;22.20;99.90
22635;DHT22;11484;50.858;4.384;2023-05-14T10:32:40;22.10;99.90
22635;DHT22;11484;50.858;4.384;2023-05-14T10:35:19;22.10;99.90
22635;DHT22;11484;50.858;4.384;2023-05-14T10:37:50;22.30;99.90
22635;DHT22;11484;50.858;4.384;2023-05-14T10:40:16;22.30;99.90
22635;DHT22;11484;50.858;4.384;2023-05-14T10:42:45;22.60;99.90
22635;DHT22;11484;50.858;4.384;2023-05-14T10:45:14;22.70;99.90
22635;DHT22;11484;50.858;4.384;2023-05-14T10:47:45;22.30;99.90
22635;DHT22;11484;50.858;4.384;2023-05-14T10:50:15;22.10;99.90
22635;DHT22;11484;50.858;4.384;2023-05-14T10:52:43;22.20;99.90
22635;DHT22;11484;50.858;4.384;2023-05-14T10:55:12;22.00;99.80
22635;DHT22;11484;50.858;4.384;2023-05-14T10:57:41;22.00;99.90
22635;DHT22;11484;50.858;4.384;2023-05-14T11:00:07;21.90;99.90
22635;DHT22;11484;50.858;4.384;2023-05-14T11:02:37;21.80;99.90
22635;DHT22;11484;50.858;4.384;2023-05-14T11:05:04;21.70;99.90
22635;DHT22;11484;50.858;4.384;2023-05-14T11:07:52;21.70;99.90
22635;DHT22;11484;50.858;4.384;2023-05-14T11:10:20;21.30;99.90
22635;DHT22;11484;50.858;4.384;2023-05-14T11:12:50;21.30;99.90
22635;DHT22;11484;50.858;4.384;2023-05-14T11:15:21;21.30;99.90
22635;DHT22;11484;50.858;4.384;2023-05-14T11:17:48;21.20;99.90
22635;DHT22;11484;50.858;4.384;2023-05-14T11:20:15;21.30;99.90
22635;DHT22;11484;50.858;4.384;2023-05-14T11:22:42;21.30;99.90
22635;DHT22;11484;50.858;4.384;2023-05-14T11:25:09;21.20;99.90
22635;DHT22;11484;50.858;4.384;2023-05-14T11:27:36;21.20;99.90
22635;DHT22;11484;50.858;4.384;2023-05-14T11:30:02;21.00;99.90
22635;DHT22;11484;50.858;4.384;2023-05-14T11:32:33;20.90;99.90
22635;DHT22;11484;50.858;4.384;2023-05-14T11:34:59;20.90;99.90
22635;DHT22;11484;50.858;4.384;2023-05-14T11:37:25;20.90;99.90
22635;DHT22;11484;50.858;4.384;2023-05-14T11:39:53;21.00;99.90
22635;DHT22;11484;50.858;4.384;2023-05-14T11:42:19;21.00;99.90
22635;DHT22;11484;50.858;4.384;2023-05-14T11:44:50;21.00;99.90
22635;DHT22;11484;50.858;4.384;2023-05-14T11:47:16;21.10;99.90
22635;DHT22;11484;50.858;4.384;2023-05-14T11:49:43;21.00;99.90
22635;DHT22;11484;50.858;4.384;2023-05-14T11:52:09;21.00;99.90
22635;DHT22;11484;50.858;4.384;2023-05-14T11:54:36;21.00;99.90
22635;DHT22;11484;50.858;4.384;2023-05-14T11:57:12;21.00;99.90
22635;DHT22;11484;50.858;4.384;2023-05-14T11:59:38;21.00;99.90
22635;DHT22;11484;50.858;4.384;2023-05-14T12:02:07;21.10;99.90
22635;DHT22;11484;50.858;4.384;2023-05-14T12:04:34;21.10;99.90
22635;DHT22;11484;50.858;4.384;2023-05-14T12:07:13;21.00;99.90
22635;DHT22;11484;50.858;4.384;2023-05-14T12:09:42;21.00;99.90
22635;DHT22;11484;50.858;4.384;2023-05-14T12:12:13;21.00;99.90
22635;DHT22;11484;50.858;4.384;2023-05-14T12:14:41;21.00;99.90
22635;DHT22;11484;50.858;4.384;2023-05-14T12:17:13;21.00;99.90
22635;DHT22;11484;50.858;4.384;2023-05-14T12:19:40;21.10;99.90
22635;DHT22;11484;50.858;4.384;2023-05-14T12:22:08;21.20;99.90
22635;DHT22;11484;50.858;4.384;2023-05-14T12:24:34;21.20;99.90
22635;DHT22;11484;50.858;4.384;2023-05-14T12:27:01;21.10;99.90
22635;DHT22;11484;50.858;4.384;2023-05-14T12:29:26;21.00;99.90
22635;DHT22;11484;50.858;4.384;2023-05-14T12:31:52;21.10;99.90
22635;DHT22;11484;50.858;4.384;2023-05-14T12:34:18;21.00;99.90
22635;DHT22;11484;50.858;4.384;2023-05-14T12:36:50;20.90;99.90
22635;DHT22;11484;50.858;4.384;2023-05-14T12:39:16;20.90;99.90
22635;DHT22;11484;50.858;4.384;2023-05-14T12:41:42;21.00;99.90
22635;DHT22;11484;50.858;4.384;2023-05-14T12:44:08;21.00;99.90
22635;DHT22;11484;50.858;4.384;2023-05-14T12:46:36;21.00;99.90
22635;DHT22;11484;50.858;4.384;2023-05-14T12:49:01;21.10;99.90
22635;DHT22;11484;50.858;4.384;2023-05-14T12:51:29;21.10;99.90
22635;DHT22;11484;50.858;4.384;2023-05-14T12:53:55;21.20;99.90
22635;DHT22;11484;50.858;4.384;2023-05-14T12:56:21;21.20;99.90
22635;DHT22;11484;50.858;4.384;2023-05-14T12:58:53;21.20;99.90
22635;DHT22;11484;50.858;4.384;2023-05-14T13:01:19;21.20;99.90
22635;DHT22;11484;50.858;4.384;2023-05-14T13:03:44;21.20;99.90
22635;DHT22;11484;50.858;4.384;2023-05-14T13:06:10;21.30;99.90
22635;DHT22;11484;50.858;4.384;2023-05-14T13:08:36;21.20;99.90
22635;DHT22;11484;50.858;4.384;2023-05-14T13:11:02;21.20;99.90
22635;DHT22;11484;50.858;4.384;2023-05-14T13:13:27;21.30;99.90
22635;DHT22;11484;50.858;4.384;2023-05-14T13:15:53;21.20;99.90
22635;DHT22;11484;50.858;4.384;2023-05-14T13:18:20;21.20;99.90
22635;DHT22;11484;50.858;4.384;2023-05-14T13:20:46;21.30;99.90
22635;DHT22;11484;50.858;4.384;2023-05-14T13:23:12;21.30;99.90
22635;DHT22;11484;50.858;4.384;2023-05-14T13:25:38;21.20;99.90
22635;DHT22;11484;50.858;4.384;2023-05-14T13:28:04;21.20;99.90
22635;DHT22;11484;50.858;4.384;2023-05-14T13:30:30;21.40;99.90
22635;DHT22;11484;50.858;4.384;2023-05-14T13:32:57;21.40;99.90
22635;DHT22;11484;50.858;4.384;2023-05-14T13:35:22;21.50;99.90
22635;DHT22;11484;50.858;4.384;2023-05-14T13:37:48;21.60;99.90
22635;DHT22;11484;50.858;4.384;2023-05-14T13:40:14;21.70;99.90
22635;DHT22;11484;50.858;4.384;2023-05-14T13:42:39;21.70;99.90
22635;DHT22;11484;50.858;4.384;2023-05-14T13:45:07;21.60;99.90
22635;DHT22;11484;50.858;4.384;2023-05-14T13:47:33;21.70;99.90
22635;DHT22;11484;50.858;4.384;2023-05-14T13:49:59;21.70;99.90
22635;DHT22;11484;50.858;4.384;2023-05-14T13:52:25;21.80;99.90
22635;DHT22;11484;50.858;4.384;2023-05-14T13:54:51;21.80;99.90
22635;DHT22;11484;50.858;4.384;2023-05-14T13:57:18;21.90;99.90
22635;DHT22;11484;50.858;4.384;2023-05-14T13:59:45;21.90;99.90
22635;DHT22;11484;50.858;4.384;2023-05-14T14:02:11;22.00;99.90
22635;DHT22;11484;50.858;4.384;2023-05-14T14:04:36;22.00;99.90
22635;DHT22;11484;50.858;4.384;2023-05-14T14:07:03;22.00;99.90
22635;DHT22;11484;50.858;4.384;2023-05-14T14:09:29;22.00;99.90
22635;DHT22;11484;50.858;4.384;2023-05-14T14:12:00;22.10;99.90
22635;DHT22;11484;50.858;4.384;2023-05-14T14:14:26;22.10;99.90
22635;DHT22;11484;50.858;4.384;2023-05-14T14:16:52;22.10;99.90
22635;DHT22;11484;50.858;4.384;2023-05-14T14:19:18;22.10;99.90
22635;DHT22;11484;50.858;4.384;2023-05-14T14:21:43;22.10;99.90
22635;DHT22;11484;50.858;4.384;2023-05-14T14:24:09;22.10;99.90
22635;DHT22;11484;50.858;4.384;2023-05-14T14:26:35;22.30;99.80
22635;DHT22;11484;50.858;4.384;2023-05-14T14:29:00;22.40;99.50
22635;DHT22;11484;50.858;4.384;2023-05-14T14:31:26;22.40;97.90
22635;DHT22;11484;50.858;4.384;2023-05-14T14:33:52;22.50;98.60
22635;DHT22;11484;50.858;4.384;2023-05-14T14:36:17;22.60;99.20
22635;DHT22;11484;50.858;4.384;2023-05-14T14:38:43;22.60;99.20
22635;DHT22;11484;50.858;4.384;2023-05-14T14:41:09;22.50;99.40
22635;DHT22;11484;50.858;4.384;2023-05-14T14:43:36;22.50;99.80
22635;DHT22;11484;50.858;4.384;2023-05-14T14:46:02;22.60;99.90
22635;DHT22;11484;50.858;4.384;2023-05-14T14:48:30;22.60;98.50
22635;DHT22;11484;50.858;4.384;2023-05-14T14:50:58;22.70;99.10
22635;DHT22;11484;50.858;4.384;2023-05-14T14:53:25;22.70;99.20
22635;DHT22;11484;50.858;4.384;2023-05-14T14:55:54;22.60;98.70
22635;DHT22;11484;50.858;4.384;2023-05-14T14:58:20;22.50;98.50
22635;DHT22;11484;50.858;4.384;2023-05-14T15:00:49;22.50;98.70
22635;DHT22;11484;50.858;4.384;2023-05-14T15:03:14;22.40;98.40
22635;DHT22;11484;50.858;4.384;2023-05-14T15:05:40;22.40;98.40
22635;DHT22;11484;50.858;4.384;2023-05-14T15:08:06;22.40;98.20
22635;DHT22;11484;50.858;4.384;2023-05-14T15:10:32;22.30;99.10
22635;DHT22;11484;50.858;4.384;2023-05-14T15:13:02;22.30;99.20
22635;DHT22;11484;50.858;4.384;2023-05-14T15:15:28;22.30;99.10
22635;DHT22;11484;50.858;4.384;2023-05-14T15:17:55;22.30;98.80
22635;DHT22;11484;50.858;4.384;2023-05-14T15:20:21;22.50;98.90
22635;DHT22;11484;50.858;4.384;2023-05-14T15:22:46;22.40;98.40
22635;DHT22;11484;50.858;4.384;2023-05-14T15:25:13;22.30;98.50
22635;DHT22;11484;50.858;4.384;2023-05-14T15:27:39;22.30;99.30
22635;DHT22;11484;50.858;4.384;2023-05-14T15:30:05;22.20;99.30